sensor_id;sensor_type;location;lat;lon;timestamp;P1;durP1;ratioP1;P2;durP2;ratioP2
47599;SDS011;33323;52.124;6.018;2024-01-16T00:00:29;9.27;;;3.50;;
47599;SDS011;33323;52.124;6.018;2024-01-16T00:02:57;12.60;;;2.53;;
47599;SDS011;33323;52.124;6.018;2024-01-16T00:05:33;9.85;;;3.03;;
47599;SDS011;33323;52.124;6.018;2024-01-16T00:21:04;11.23;;;3.60;;
47599;SDS011;33323;52.124;6.018;2024-01-16T00:23:34;7.00;;;3.10;;
47599;SDS011;33323;52.124;6.018;2024-01-16T00:26:02;6.13;;;3.03;;
47599;SDS011;33323;52.124;6.018;2024-01-16T00:28:35;7.75;;;2.42;;
47599;SDS011;33323;52.124;6.018;2024-01-16T00:31:06;12.43;;;3.50;;
47599;SDS011;33323;52.124;6.018;2024-01-16T00:34:06;7.35;;;2.90;;
47599;SDS011;33323;52.124;6.018;2024-01-16T00:50:04;10.35;;;2.65;;
47599;SDS011;33323;52.124;6.018;2024-01-16T00:53:07;12.75;;;3.03;;
47599;SDS011;33323;52.124;6.018;2024-01-16T01:08:14;10.20;;;2.63;;
47599;SDS011;33323;52.124;6.018;2024-01-16T01:11:11;9.05;;;2.25;;
47599;SDS011;33323;52.124;6.018;2024-01-16T01:17:06;7.10;;;2.80;;
47599;SDS011;33323;52.124;6.018;2024-01-16T01:19:38;4.60;;;1.77;;
47599;SDS011;33323;52.124;6.018;2024-01-16T01:22:06;7.15;;;2.42;;
47599;SDS011;33323;52.124;6.018;2024-01-16T01:39:02;11.27;;;2.97;;
47599;SDS011;33323;52.124;6.018;2024-01-16T01:41:33;12.32;;;3.90;;
47599;SDS011;33323;52.124;6.018;2024-01-16T01:44:05;16.38;;;2.80;;
47599;SDS011;33323;52.124;6.018;2024-01-16T01:46:43;13.35;;;4.53;;
47599;SDS011;33323;52.124;6.018;2024-01-16T01:49:18;13.13;;;3.05;;
47599;SDS011;33323;52.124;6.018;2024-01-16T01:51:58;8.27;;;2.88;;
47599;SDS011;33323;52.124;6.018;2024-01-16T01:54:26;8.38;;;2.40;;
47599;SDS011;33323;52.124;6.018;2024-01-16T01:57:03;10.43;;;3.38;;
47599;SDS011;33323;52.124;6.018;2024-01-16T01:59:32;7.90;;;2.38;;
47599;SDS011;33323;52.124;6.018;2024-01-16T02:02:03;20.58;;;3.97;;
47599;SDS011;33323;52.124;6.018;2024-01-16T02:04:37;12.27;;;2.65;;
47599;SDS011;33323;52.124;6.018;2024-01-16T02:07:11;10.20;;;2.50;;
47599;SDS011;33323;52.124;6.018;2024-01-16T02:09:39;4.32;;;2.15;;
47599;SDS011;33323;52.124;6.018;2024-01-16T02:12:07;12.32;;;2.60;;
47599;SDS011;33323;52.124;6.018;2024-01-16T02:15:00;7.13;;;2.03;;
47599;SDS011;33323;52.124;6.018;2024-01-16T02:17:29;3.95;;;2.20;;
47599;SDS011;33323;52.124;6.018;2024-01-16T02:20:36;9.90;;;2.63;;
47599;SDS011;33323;52.124;6.018;2024-01-16T02:23:09;6.32;;;2.05;;
47599;SDS011;33323;52.124;6.018;2024-01-16T02:25:42;5.63;;;2.13;;
47599;SDS011;33323;52.124;6.018;2024-01-16T02:28:11;5.55;;;2.10;;
47599;SDS011;33323;52.124;6.018;2024-01-16T02:30:42;15.10;;;3.70;;
47599;SDS011;33323;52.124;6.018;2024-01-16T02:33:18;7.05;;;1.92;;
47599;SDS011;33323;52.124;6.018;2024-01-16T02:35:52;6.65;;;2.13;;
47599;SDS011;33323;52.124;6.018;2024-01-16T02:38:20;4.30;;;2.33;;
47599;SDS011;33323;52.124;6.018;2024-01-16T02:40:50;14.00;;;3.10;;
47599;SDS011;33323;52.124;6.018;2024-01-16T02:43:19;8.25;;;1.90;;
47599;SDS011;33323;52.124;6.018;2024-01-16T02:45:49;8.07;;;2.05;;
47599;SDS011;33323;52.124;6.018;2024-01-16T02:48:16;5.03;;;1.98;;
47599;SDS011;33323;52.124;6.018;2024-01-16T02:53:33;4.30;;;2.03;;
47599;SDS011;33323;52.124;6.018;2024-01-16T02:56:16;5.43;;;1.98;;
47599;SDS011;33323;52.124;6.018;2024-01-16T02:58:46;10.30;;;3.92;;
47599;SDS011;33323;52.124;6.018;2024-01-16T03:01:16;7.10;;;1.88;;
47599;SDS011;33323;52.124;6.018;2024-01-16T03:03:47;12.25;;;2.67;;
47599;SDS011;33323;52.124;6.018;2024-01-16T03:06:22;10.75;;;2.63;;
47599;SDS011;33323;52.124;6.018;2024-01-16T03:08:51;6.70;;;2.65;;
47599;SDS011;33323;52.124;6.018;2024-01-16T03:11:21;7.10;;;2.00;;
47599;SDS011;33323;52.124;6.018;2024-01-16T03:19:55;4.30;;;2.15;;
47599;SDS011;33323;52.124;6.018;2024-01-16T03:25:51;3.83;;;2.03;;
47599;SDS011;33323;52.124;6.018;2024-01-16T03:28:46;6.85;;;2.05;;
47599;SDS011;33323;52.124;6.018;2024-01-16T03:41:57;5.60;;;2.22;;
47599;SDS011;33323;52.124;6.018;2024-01-16T03:44:24;3.28;;;1.73;;
47599;SDS011;33323;52.124;6.018;2024-01-16T03:46:54;6.05;;;1.90;;
47599;SDS011;33323;52.124;6.018;2024-01-16T03:49:22;4.20;;;1.30;;
47599;SDS011;33323;52.124;6.018;2024-01-16T03:51:51;3.80;;;2.10;;
47599;SDS011;33323;52.124;6.018;2024-01-16T03:54:19;7.18;;;1.75;;
47599;SDS011;33323;52.124;6.018;2024-01-16T03:56:47;2.42;;;1.42;;
47599;SDS011;33323;52.124;6.018;2024-01-16T03:59:15;5.68;;;1.55;;
47599;SDS011;33323;52.124;6.018;2024-01-16T04:01:47;3.95;;;1.35;;
47599;SDS011;33323;52.124;6.018;2024-01-16T04:32:22;8.00;;;2.63;;
47599;SDS011;33323;52.124;6.018;2024-01-16T04:34:51;3.97;;;1.90;;
47599;SDS011;33323;52.124;6.018;2024-01-16T04:37:20;3.88;;;1.75;;
47599;SDS011;33323;52.124;6.018;2024-01-16T04:39:51;3.40;;;1.58;;
47599;SDS011;33323;52.124;6.018;2024-01-16T04:42:19;6.57;;;1.48;;
47599;SDS011;33323;52.124;6.018;2024-01-16T04:44:49;4.30;;;1.90;;
47599;SDS011;33323;52.124;6.018;2024-01-16T05:01:32;6.53;;;0.98;;
47599;SDS011;33323;52.124;6.018;2024-01-16T05:54:39;5.80;;;3.65;;
47599;SDS011;33323;52.124;6.018;2024-01-16T06:50:14;8.77;;;4.25;;
47599;SDS011;33323;52.124;6.018;2024-01-16T07:24:17;10.43;;;4.18;;
47599;SDS011;33323;52.124;6.018;2024-01-16T09:04:20;19.98;;;8.23;;
47599;SDS011;33323;52.124;6.018;2024-01-16T09:06:51;17.92;;;7.88;;
47599;SDS011;33323;52.124;6.018;2024-01-16T16:23:21;10.43;;;2.83;;
47599;SDS011;33323;52.124;6.018;2024-01-16T16:25:53;8.98;;;3.40;;
47599;SDS011;33323;52.124;6.018;2024-01-16T16:28:50;8.93;;;2.67;;
47599;SDS011;33323;52.124;6.018;2024-01-16T16:31:19;8.40;;;3.47;;
47599;SDS011;33323;52.124;6.018;2024-01-16T16:37:30;8.20;;;3.53;;
47599;SDS011;33323;52.124;6.018;2024-01-16T16:40:04;16.67;;;6.03;;
47599;SDS011;33323;52.124;6.018;2024-01-16T16:42:38;7.97;;;3.03;;
47599;SDS011;33323;52.124;6.018;2024-01-16T16:45:05;5.97;;;3.20;;
47599;SDS011;33323;52.124;6.018;2024-01-16T16:47:34;7.50;;;3.00;;
47599;SDS011;33323;52.124;6.018;2024-01-16T16:50:10;9.32;;;3.13;;
47599;SDS011;33323;52.124;6.018;2024-01-16T16:52:39;7.68;;;3.00;;
47599;SDS011;33323;52.124;6.018;2024-01-16T16:55:07;9.32;;;3.00;;
47599;SDS011;33323;52.124;6.018;2024-01-16T16:57:37;6.90;;;2.70;;
47599;SDS011;33323;52.124;6.018;2024-01-16T17:00:06;8.20;;;2.78;;
47599;SDS011;33323;52.124;6.018;2024-01-16T17:02:38;10.57;;;4.38;;
47599;SDS011;33323;52.124;6.018;2024-01-16T17:05:07;6.07;;;3.60;;
47599;SDS011;33323;52.124;6.018;2024-01-16T17:07:36;7.28;;;3.83;;
47599;SDS011;33323;52.124;6.018;2024-01-16T17:10:05;9.85;;;4.55;;
47599;SDS011;33323;52.124;6.018;2024-01-16T17:12:33;11.15;;;3.88;;
47599;SDS011;33323;52.124;6.018;2024-01-16T17:15:03;7.65;;;3.55;;
47599;SDS011;33323;52.124;6.018;2024-01-16T17:17:31;8.05;;;3.88;;
47599;SDS011;33323;52.124;6.018;2024-01-16T17:20:04;6.43;;;3.65;;
47599;SDS011;33323;52.124;6.018;2024-01-16T17:22:33;9.45;;;4.47;;
47599;SDS011;33323;52.124;6.018;2024-01-16T17:25:01;9.40;;;4.05;;
47599;SDS011;33323;52.124;6.018;2024-01-16T17:27:32;14.07;;;4.65;;
47599;SDS011;33323;52.124;6.018;2024-01-16T17:30:00;9.00;;;3.88;;
47599;SDS011;33323;52.124;6.018;2024-01-16T17:32:29;7.15;;;3.47;;
47599;SDS011;33323;52.124;6.018;2024-01-16T17:34:58;8.52;;;3.70;;
47599;SDS011;33323;52.124;6.018;2024-01-16T17:37:32;7.88;;;3.90;;
47599;SDS011;33323;52.124;6.018;2024-01-16T17:40:04;6.40;;;3.60;;
47599;SDS011;33323;52.124;6.018;2024-01-16T17:42:39;6.30;;;3.17;;
47599;SDS011;33323;52.124;6.018;2024-01-16T17:45:10;8.68;;;3.67;;
47599;SDS011;33323;52.124;6.018;2024-01-16T17:47:38;7.60;;;3.75;;
47599;SDS011;33323;52.124;6.018;2024-01-16T17:50:13;7.43;;;3.90;;
47599;SDS011;33323;52.124;6.018;2024-01-16T17:52:41;8.70;;;3.78;;
47599;SDS011;33323;52.124;6.018;2024-01-16T17:55:10;8.85;;;4.35;;
47599;SDS011;33323;52.124;6.018;2024-01-16T17:57:38;11.77;;;4.45;;
47599;SDS011;33323;52.124;6.018;2024-01-16T18:00:10;13.13;;;4.57;;
47599;SDS011;33323;52.124;6.018;2024-01-16T18:02:39;12.38;;;4.60;;
47599;SDS011;33323;52.124;6.018;2024-01-16T18:05:08;8.10;;;3.17;;
47599;SDS011;33323;52.124;6.018;2024-01-16T18:07:43;7.32;;;3.83;;
47599;SDS011;33323;52.124;6.018;2024-01-16T18:10:11;8.85;;;4.97;;
47599;SDS011;33323;52.124;6.018;2024-01-16T18:12:40;9.90;;;3.67;;
47599;SDS011;33323;52.124;6.018;2024-01-16T18:15:09;12.77;;;4.65;;
47599;SDS011;33323;52.124;6.018;2024-01-16T18:20:08;14.02;;;4.18;;
47599;SDS011;33323;52.124;6.018;2024-01-16T18:22:37;15.32;;;5.00;;
47599;SDS011;33323;52.124;6.018;2024-01-16T18:25:09;8.52;;;4.13;;
47599;SDS011;33323;52.124;6.018;2024-01-16T18:27:37;10.32;;;4.35;;
47599;SDS011;33323;52.124;6.018;2024-01-16T18:30:05;5.65;;;3.53;;
47599;SDS011;33323;52.124;6.018;2024-01-16T18:32:34;9.05;;;3.65;;
47599;SDS011;33323;52.124;6.018;2024-01-16T18:35:01;7.88;;;3.80;;
47599;SDS011;33323;52.124;6.018;2024-01-16T18:37:31;8.27;;;4.35;;
47599;SDS011;33323;52.124;6.018;2024-01-16T18:39:59;7.95;;;3.75;;
47599;SDS011;33323;52.124;6.018;2024-01-16T18:42:26;10.48;;;3.42;;
47599;SDS011;33323;52.124;6.018;2024-01-16T18:44:54;12.05;;;5.20;;
47599;SDS011;33323;52.124;6.018;2024-01-16T18:47:21;5.05;;;2.92;;
47599;SDS011;33323;52.124;6.018;2024-01-16T18:49:49;9.98;;;3.95;;
47599;SDS011;33323;52.124;6.018;2024-01-16T18:52:16;9.93;;;4.85;;
47599;SDS011;33323;52.124;6.018;2024-01-16T18:54:44;12.85;;;4.68;;
47599;SDS011;33323;52.124;6.018;2024-01-16T18:57:12;7.53;;;4.60;;
47599;SDS011;33323;52.124;6.018;2024-01-16T18:59:40;5.75;;;3.35;;
47599;SDS011;33323;52.124;6.018;2024-01-16T19:02:09;11.02;;;4.10;;
47599;SDS011;33323;52.124;6.018;2024-01-16T19:04:36;10.13;;;3.47;;
47599;SDS011;33323;52.124;6.018;2024-01-16T19:07:08;6.05;;;3.75;;
47599;SDS011;33323;52.124;6.018;2024-01-16T19:12:11;8.90;;;3.75;;
47599;SDS011;33323;52.124;6.018;2024-01-16T19:14:41;6.93;;;3.35;;
47599;SDS011;33323;52.124;6.018;2024-01-16T19:17:13;6.00;;;3.25;;
47599;SDS011;33323;52.124;6.018;2024-01-16T19:19:41;10.00;;;4.05;;
47599;SDS011;33323;52.124;6.018;2024-01-16T19:22:08;8.32;;;2.95;;
47599;SDS011;33323;52.124;6.018;2024-01-16T19:24:36;8.20;;;3.90;;
47599;SDS011;33323;52.124;6.018;2024-01-16T19:27:03;15.55;;;5.40;;
47599;SDS011;33323;52.124;6.018;2024-01-16T19:29:30;8.15;;;3.60;;
47599;SDS011;33323;52.124;6.018;2024-01-16T19:31:58;8.60;;;3.38;;
47599;SDS011;33323;52.124;6.018;2024-01-16T19:34:26;11.70;;;3.33;;
47599;SDS011;33323;52.124;6.018;2024-01-16T19:36:53;5.65;;;3.15;;
47599;SDS011;33323;52.124;6.018;2024-01-16T19:39:22;12.10;;;4.50;;
47599;SDS011;33323;52.124;6.018;2024-01-16T19:41:51;5.22;;;3.08;;
47599;SDS011;33323;52.124;6.018;2024-01-16T19:44:18;7.60;;;3.80;;
47599;SDS011;33323;52.124;6.018;2024-01-16T19:46:46;6.50;;;3.70;;
47599;SDS011;33323;52.124;6.018;2024-01-16T19:49:15;5.75;;;2.67;;
47599;SDS011;33323;52.124;6.018;2024-01-16T19:51:43;10.60;;;3.58;;
47599;SDS011;33323;52.124;6.018;2024-01-16T19:54:11;5.88;;;3.42;;
47599;SDS011;33323;52.124;6.018;2024-01-16T19:56:39;8.88;;;3.30;;
47599;SDS011;33323;52.124;6.018;2024-01-16T19:59:09;9.30;;;3.65;;
47599;SDS011;33323;52.124;6.018;2024-01-16T20:01:37;7.05;;;2.90;;
47599;SDS011;33323;52.124;6.018;2024-01-16T20:04:04;9.18;;;2.90;;
47599;SDS011;33323;52.124;6.018;2024-01-16T20:06:32;9.45;;;2.60;;
47599;SDS011;33323;52.124;6.018;2024-01-16T20:08:59;7.93;;;4.43;;
47599;SDS011;33323;52.124;6.018;2024-01-16T20:11:31;7.38;;;3.00;;
47599;SDS011;33323;52.124;6.018;2024-01-16T20:14:00;11.80;;;4.28;;
47599;SDS011;33323;52.124;6.018;2024-01-16T20:16:28;12.00;;;3.67;;
47599;SDS011;33323;52.124;6.018;2024-01-16T20:18:55;9.00;;;3.17;;
47599;SDS011;33323;52.124;6.018;2024-01-16T20:21:24;8.23;;;3.50;;
47599;SDS011;33323;52.124;6.018;2024-01-16T20:23:52;8.48;;;3.22;;
47599;SDS011;33323;52.124;6.018;2024-01-16T20:26:20;6.47;;;3.20;;
47599;SDS011;33323;52.124;6.018;2024-01-16T20:28:48;7.05;;;3.50;;
47599;SDS011;33323;52.124;6.018;2024-01-16T20:31:15;10.60;;;2.95;;
47599;SDS011;33323;52.124;6.018;2024-01-16T20:33:43;7.95;;;3.63;;
47599;SDS011;33323;52.124;6.018;2024-01-16T20:36:13;8.30;;;3.97;;
47599;SDS011;33323;52.124;6.018;2024-01-16T20:38:42;8.50;;;3.90;;
47599;SDS011;33323;52.124;6.018;2024-01-16T20:41:14;6.63;;;3.88;;
47599;SDS011;33323;52.124;6.018;2024-01-16T20:43:42;10.73;;;3.65;;
47599;SDS011;33323;52.124;6.018;2024-01-16T20:46:10;7.28;;;3.42;;
47599;SDS011;33323;52.124;6.018;2024-01-16T20:48:37;5.55;;;3.40;;
47599;SDS011;33323;52.124;6.018;2024-01-16T20:51:05;12.85;;;4.32;;
47599;SDS011;33323;52.124;6.018;2024-01-16T20:53:33;8.85;;;3.58;;
47599;SDS011;33323;52.124;6.018;2024-01-16T20:56:00;8.70;;;3.88;;
47599;SDS011;33323;52.124;6.018;2024-01-16T20:58:27;9.25;;;3.38;;
47599;SDS011;33323;52.124;6.018;2024-01-16T21:00:55;7.47;;;3.50;;
47599;SDS011;33323;52.124;6.018;2024-01-16T21:03:23;6.38;;;2.80;;
47599;SDS011;33323;52.124;6.018;2024-01-16T21:05:54;11.35;;;3.83;;
47599;SDS011;33323;52.124;6.018;2024-01-16T21:08:23;8.13;;;3.90;;
47599;SDS011;33323;52.124;6.018;2024-01-16T21:10:50;8.45;;;3.47;;
47599;SDS011;33323;52.124;6.018;2024-01-16T21:13:18;11.23;;;3.83;;
47599;SDS011;33323;52.124;6.018;2024-01-16T21:15:46;7.55;;;3.40;;
47599;SDS011;33323;52.124;6.018;2024-01-16T21:18:13;9.30;;;3.78;;
47599;SDS011;33323;52.124;6.018;2024-01-16T21:20:43;5.88;;;3.05;;
47599;SDS011;33323;52.124;6.018;2024-01-16T21:23:10;9.13;;;5.05;;
47599;SDS011;33323;52.124;6.018;2024-01-16T21:25:39;5.72;;;3.13;;
47599;SDS011;33323;52.124;6.018;2024-01-16T21:28:06;9.75;;;3.47;;
47599;SDS011;33323;52.124;6.018;2024-01-16T21:30:34;10.98;;;3.85;;
47599;SDS011;33323;52.124;6.018;2024-01-16T21:33:01;8.73;;;3.67;;
47599;SDS011;33323;52.124;6.018;2024-01-16T21:35:29;11.45;;;3.95;;
47599;SDS011;33323;52.124;6.018;2024-01-16T21:37:56;11.77;;;4.00;;
47599;SDS011;33323;52.124;6.018;2024-01-16T21:40:24;8.82;;;3.83;;
47599;SDS011;33323;52.124;6.018;2024-01-16T21:42:52;8.88;;;4.88;;
47599;SDS011;33323;52.124;6.018;2024-01-16T21:45:19;12.05;;;5.22;;
47599;SDS011;33323;52.124;6.018;2024-01-16T21:47:47;10.43;;;4.10;;
47599;SDS011;33323;52.124;6.018;2024-01-16T21:50:15;9.02;;;4.50;;
47599;SDS011;33323;52.124;6.018;2024-01-16T21:52:56;12.95;;;4.57;;
47599;SDS011;33323;52.124;6.018;2024-01-16T21:55:24;11.70;;;4.90;;
47599;SDS011;33323;52.124;6.018;2024-01-16T21:57:52;9.57;;;4.22;;
47599;SDS011;33323;52.124;6.018;2024-01-16T22:00:19;8.57;;;3.83;;
47599;SDS011;33323;52.124;6.018;2024-01-16T22:02:47;8.88;;;4.82;;
47599;SDS011;33323;52.124;6.018;2024-01-16T22:05:15;10.05;;;4.35;;
47599;SDS011;33323;52.124;6.018;2024-01-16T22:07:42;9.15;;;4.13;;
47599;SDS011;33323;52.124;6.018;2024-01-16T22:10:10;9.20;;;4.15;;
47599;SDS011;33323;52.124;6.018;2024-01-16T22:12:37;7.85;;;4.22;;
47599;SDS011;33323;52.124;6.018;2024-01-16T22:15:05;16.33;;;5.10;;
47599;SDS011;33323;52.124;6.018;2024-01-16T22:17:33;11.65;;;3.97;;
47599;SDS011;33323;52.124;6.018;2024-01-16T22:20:01;13.52;;;4.68;;
47599;SDS011;33323;52.124;6.018;2024-01-16T22:22:31;10.68;;;4.68;;
47599;SDS011;33323;52.124;6.018;2024-01-16T22:24:59;18.67;;;5.68;;
47599;SDS011;33323;52.124;6.018;2024-01-16T22:27:27;17.25;;;4.53;;
47599;SDS011;33323;52.124;6.018;2024-01-16T22:29:54;10.82;;;4.97;;
47599;SDS011;33323;52.124;6.018;2024-01-16T22:32:22;14.05;;;5.43;;
47599;SDS011;33323;52.124;6.018;2024-01-16T22:34:49;7.00;;;4.35;;
47599;SDS011;33323;52.124;6.018;2024-01-16T22:37:17;10.95;;;5.15;;
47599;SDS011;33323;52.124;6.018;2024-01-16T22:39:44;9.00;;;5.25;;
47599;SDS011;33323;52.124;6.018;2024-01-16T22:42:12;8.50;;;4.57;;
47599;SDS011;33323;52.124;6.018;2024-01-16T22:44:39;11.60;;;5.30;;
47599;SDS011;33323;52.124;6.018;2024-01-16T22:47:10;12.68;;;5.88;;
47599;SDS011;33323;52.124;6.018;2024-01-16T22:49:37;13.05;;;5.20;;
47599;SDS011;33323;52.124;6.018;2024-01-16T22:52:05;10.20;;;5.82;;
47599;SDS011;33323;52.124;6.018;2024-01-16T22:54:33;14.30;;;5.57;;
47599;SDS011;33323;52.124;6.018;2024-01-16T22:57:01;12.13;;;5.88;;
47599;SDS011;33323;52.124;6.018;2024-01-16T22:59:29;14.30;;;6.15;;
47599;SDS011;33323;52.124;6.018;2024-01-16T23:01:56;10.10;;;5.38;;
47599;SDS011;33323;52.124;6.018;2024-01-16T23:04:23;11.82;;;5.35;;
47599;SDS011;33323;52.124;6.018;2024-01-16T23:06:50;13.02;;;5.88;;
47599;SDS011;33323;52.124;6.018;2024-01-16T23:09:18;10.80;;;5.40;;
47599;SDS011;33323;52.124;6.018;2024-01-16T23:11:45;12.20;;;6.28;;
47599;SDS011;33323;52.124;6.018;2024-01-16T23:14:12;13.35;;;5.68;;
47599;SDS011;33323;52.124;6.018;2024-01-16T23:16:40;16.52;;;7.60;;
47599;SDS011;33323;52.124;6.018;2024-01-16T23:19:08;11.40;;;5.95;;
47599;SDS011;33323;52.124;6.018;2024-01-16T23:21:37;14.13;;;6.90;;
47599;SDS011;33323;52.124;6.018;2024-01-16T23:24:04;17.25;;;6.38;;
47599;SDS011;33323;52.124;6.018;2024-01-16T23:26:32;14.15;;;7.00;;
47599;SDS011;33323;52.124;6.018;2024-01-16T23:28:59;15.90;;;7.72;;
47599;SDS011;33323;52.124;6.018;2024-01-16T23:31:27;12.02;;;6.82;;
47599;SDS011;33323;52.124;6.018;2024-01-16T23:33:54;13.93;;;6.88;;
47599;SDS011;33323;52.124;6.018;2024-01-16T23:36:21;16.83;;;8.38;;
47599;SDS011;33323;52.124;6.018;2024-01-16T23:38:49;19.27;;;8.77;;
47599;SDS011;33323;52.124;6.018;2024-01-16T23:41:19;15.57;;;7.63;;
47599;SDS011;33323;52.124;6.018;2024-01-16T23:43:46;18.27;;;8.07;;
47599;SDS011;33323;52.124;6.018;2024-01-16T23:46:13;21.58;;;8.52;;
47599;SDS011;33323;52.124;6.018;2024-01-16T23:48:42;16.17;;;8.40;;
47599;SDS011;33323;52.124;6.018;2024-01-16T23:51:11;13.57;;;8.20;;
47599;SDS011;33323;52.124;6.018;2024-01-16T23:53:38;18.80;;;8.07;;
47599;SDS011;33323;52.124;6.018;2024-01-16T23:56:06;12.88;;;7.78;;
47599;SDS011;33323;52.124;6.018;2024-01-16T23:58:33;15.88;;;7.32;;
